Aérodrome :
LOGIN :

S'inscrire | Disclaimer

   EN    FR    IT 

 










Légende :    VFR   VFR Marginal   IFR   IFR Intensif   IFR Très Intensif
Visi : 
Plafond : 
>= 8 km
>= 3000ft
5 à 8 km
1000 à 3000 ft
1500m à 5 km
500 à 1000 ft
800 à 1500m
200 à 500 ft
< 800m
< 200 ft
Symboles :   Orages  Brouillard  Fortes neiges  Fortes précipitations  Vent > 20 kt
SIGMETs :   Divers  Orages  Givrage  Turbulence  Onde Orograph.  Cendres Volcan.







- Altitude de l'aérodrome : 665 ft
- Code IATA : NOC


EIKN - Connaught / Knock- Ireland West

DERNIER METAR :
  • 230700Z 32013KT 9999 SCT012 FEW018CB BKN033 03/03 Q0985 NOSIG

METARs EXPIRÉS :
  • 230630Z 34014KT 9999 -SHRA BKN013 SCT018CB BKN036 03/02 Q0983 NOSIG
  • 230600Z 29014KT 250V320 9999 FEW009 SCT011 FEW018CB BKN045 04/03 Q0981 NOSIG

TAF TAF EIKN
Valide du 23 à 06h jusqu'au 24 à 06h UTC


230500Z 2306/2406 28015KT SCT012 BKN020
TEMPO 2306/2308 30018G30KT 5000 SHRAGS BKN005 SCT018CB
BECMG 2307/2309 32012KT
TEMPO 2308/2406 7000 -SHRA BKN008 SCT018CB
BECMG 2315/2318 28007KT
TEMPO 2321/2406 VRB03KT
Pas de NOTAMs connus pour ce terrain.



MET'MAP, la Météo Aéronautique d'un coup d'oeil ! - Copyright ORBIFLY Décembre 2007 - Disclaimer

ORBIFLY MET'MAP TEAM :

Programmation & Développement : Alexandra Zaïnal
Conception & Développement : Baudouin d'Aumeries
Co-Programmation & Développement : Marc-Olivier Méhu
Soutien technique & logistique : Manuel Goepfert

Contact : metmap@orbifly.com




SOURCES & CREDITS :

   NOAA